Time;durP1;ratioP1;P1;durP2;ratioP2;P2;SDS_P1;SDS_P2;PMS_P1;PMS_P2;Temp;Humidity;BMP_temperature;BMP_pressure;BME280_temperature;BME280_humidity;BME280_pressure;Samples;Min_cycle;Max_cycle;Signal;HPM_P1;HPM_P2
2022/09/05 00:01:57;;;;;;;;;;;;;;;20.30;50.49;152757.47;1709253;83;20171;-69
2022/09/05 00:04:33;;;;;;;;;;;;;;;20.39;50.74;152778.36;1709020;84;21192;-70
2022/09/05 00:07:15;;;;;;;;;;;;;;;20.35;50.77;152767.91;1677547;84;20589;-70
2022/09/05 00:10:11;;;;;;;;;;;;;;;20.36;51.00;152770.53;1712656;82;20125;-68
2022/09/05 00:12:38;;;;;;;;;;;;;;;20.41;51.12;152783.58;1712460;83;20459;-69
2022/09/05 00:15:16;;;;;;;;;;;;;;;20.53;51.07;152814.95;1709296;83;20470;-69
2022/09/05 00:18:14;;;;;;;;;;;;;;;20.66;50.92;152846.28;1709340;83;21246;-68
2022/09/05 00:20:52;;;;;;;;;;;;;;;20.72;50.96;152862.00;1709198;84;20169;-68
2022/09/05 00:23:38;;;;;;;;;;;;;;;20.68;50.71;152851.55;1709085;84;20225;-69
2022/09/05 00:26:29;;;;;;;;;;;;;;;20.51;50.92;152809.73;1706769;83;20214;-69
2022/09/05 00:29:24;;;;;;;;;;;;;;;20.49;51.04;152803.19;1694129;84;20139;-68
2022/09/05 00:32:01;;;;;;;;;;;;;;;20.50;50.88;152805.80;1693824;84;21102;-68
2022/09/05 00:34:40;;;;;;;;;;;;;;;20.44;51.27;152791.41;1693748;84;20155;-69
2022/09/05 00:37:09;;;;;;;;;;;;;;;20.46;51.45;152796.67;1693848;84;20206;-70
2022/09/05 00:39:40;;;;;;;;;;;;;;;20.47;51.57;152800.56;1693853;84;20139;-69
2022/09/05 00:42:09;;;;;;;;;;;;;;;20.49;51.41;152803.19;1694200;84;20637;-69
2022/09/05 00:44:55;;;;;;;;;;;;;;;20.56;51.11;152822.78;1668088;84;21865;-69
2022/09/05 00:47:30;;;;;;;;;;;;;;;20.57;51.06;152824.11;1693679;84;20210;-68
2022/09/05 00:50:02;;;;;;;;;;;;;;;20.60;50.82;152833.22;1693822;84;20178;-70
2022/09/05 00:52:35;;;;;;;;;;;;;;;20.65;50.63;152843.67;1693768;84;20640;-69
2022/09/05 00:55:20;;;;;;;;;;;;;;;20.68;50.32;152851.55;1693994;84;20174;-69
2022/09/05 00:58:25;;;;;;;;;;;;;;;20.66;49.96;152846.28;1668616;84;21234;-69
2022/09/05 01:00:55;;;;;;;;;;;;;;;20.68;49.71;152851.55;1693639;84;20496;-69
2022/09/05 01:03:44;;;;;;;;;;;;;;;20.83;49.10;152889.48;1693835;83;20450;-69
2022/09/05 01:06:17;;;;;;;;;;;;;;;20.88;48.71;152902.53;1696392;84;20186;-69
2022/09/05 01:08:54;;;;;;;;;;;;;;;20.88;48.64;152903.81;1699548;83;20179;-69
2022/09/05 01:11:41;;;;;;;;;;;;;;;20.89;48.37;152906.48;1698989;84;21138;-70
2022/09/05 01:14:30;;;;;;;;;;;;;;;20.85;48.50;152895.98;1694698;84;20195;-70
2022/09/05 01:17:23;;;;;;;;;;;;;;;20.85;48.63;152895.98;1693883;84;20479;-69
2022/09/05 01:20:18;;;;;;;;;;;;;;;20.93;49.72;152915.59;1671846;84;20436;-69
2022/09/05 01:22:51;;;;;;;;;;;;;;;20.98;50.21;152927.38;1694222;84;20228;-69
2022/09/05 01:25:27;;;;;;;;;;;;;;;20.86;50.72;152898.59;1693894;84;21156;-70
2022/09/05 01:28:07;;;;;;;;;;;;;;;20.89;50.62;152906.48;1701838;83;20178;-69
2022/09/05 01:31:14;;;;;;;;;;;;;;;20.98;50.93;152928.66;1673772;84;20186;-70
2022/09/05 01:33:44;;;;;;;;;;;;;;;20.99;51.18;152931.27;1704189;84;20471;-70
2022/09/05 01:36:50;;;;;;;;;;;;;;;21.10;51.00;152957.44;1703911;84;20191;-68
2022/09/05 01:39:36;;;;;;;;;;;;;;;21.15;50.85;152971.81;1703828;84;21236;-68
2022/09/05 01:42:23;;;;;;;;;;;;;;;21.14;50.89;152967.88;1703703;84;20198;-69
2022/09/05 01:45:03;;;;;;;;;;;;;;;21.10;50.54;152958.70;1703756;84;20197;-68
2022/09/05 01:47:52;;;;;;;;;;;;;;;20.87;51.21;152899.94;1703764;84;20594;-69
2022/09/05 01:50:32;;;;;;;;;;;;;;;20.85;51.54;152895.98;1703527;84;20253;-69
2022/09/05 01:53:09;;;;;;;;;;;;;;;20.72;51.60;152862.00;1704237;84;39200;-68
2022/09/05 01:55:47;;;;;;;;;;;;;;;20.69;51.66;152855.44;1703851;84;20399;-69
2022/09/05 01:58:43;;;;;;;;;;;;;;;20.73;51.24;152864.61;1703749;84;20205;-68
2022/09/05 02:01:25;;;;;;;;;;;;;;;20.66;51.09;152847.61;1703813;84;20217;-68
2022/09/05 02:04:13;;;;;;;;;;;;;;;20.69;51.05;152854.16;1703632;84;20201;-68
2022/09/05 02:06:53;;;;;;;;;;;;;;;20.75;50.98;152871.11;1679175;84;21158;-69
2022/09/05 02:09:39;;;;;;;;;;;;;;;20.92;50.76;152911.70;1687013;85;20174;-69
2022/09/05 02:12:29;;;;;;;;;;;;;;;20.94;50.39;152918.20;1686787;85;20203;-66
2022/09/05 02:15:06;;;;;;;;;;;;;;;20.95;50.46;152919.53;1674998;85;20168;-65
2022/09/05 02:17:43;;;;;;;;;;;;;;;21.01;50.53;152935.20;1674432;85;20203;-66
2022/09/05 02:20:17;;;;;;;;;;;;;;;21.07;50.38;152950.88;1657891;86;21889;-68
2022/09/05 02:22:47;;;;;;;;;;;;;;;20.85;50.80;152894.70;1649735;85;20160;-66
2022/09/05 02:25:17;;;;;;;;;;;;;;;20.74;50.63;152868.50;1675024;85;20205;-66
2022/09/05 02:27:56;;;;;;;;;;;;;;;20.73;51.03;152865.89;1674800;85;20164;-65
2022/09/05 02:30:23;;;;;;;;;;;;;;;20.88;51.12;152902.53;1648563;85;20221;-65
2022/09/05 02:33:05;;;;;;;;;;;;;;;20.94;50.68;152918.20;1674972;84;21276;-69
2022/09/05 02:35:50;;;;;;;;;;;;;;;20.82;50.82;152888.16;1679134;85;20176;-69
2022/09/05 02:38:32;;;;;;;;;;;;;;;20.69;51.34;152855.44;1674957;85;20201;-69
2022/09/05 02:41:36;;;;;;;;;;;;;;;20.85;51.32;152895.98;1679176;85;20177;-68
2022/09/05 02:44:21;;;;;;;;;;;;;;;21.09;50.80;152956.09;1614046;87;20505;-68
2022/09/05 02:47:21;;;;;;;;;;;;;;;21.15;50.23;152971.81;1663238;85;21102;-69
2022/09/05 02:50:10;;;;;;;;;;;;;;;21.11;49.94;152961.38;1635066;87;20269;-68
2022/09/05 02:52:37;;;;;;;;;;;;;;;20.86;50.39;152898.59;1670493;84;20490;-69
2022/09/05 02:55:07;;;;;;;;;;;;;;;20.82;50.69;152888.16;1679743;85;20176;-69
2022/09/05 02:57:38;;;;;;;;;;;;;;;20.84;50.64;152893.38;1679332;85;20224;-69
2022/09/05 03:00:26;;;;;;;;;;;;;;;20.89;50.67;152905.16;1675241;85;21206;-68
2022/09/05 03:02:59;;;;;;;;;;;;;;;20.98;50.21;152927.38;1680214;85;20192;-69
2022/09/05 03:05:34;;;;;;;;;;;;;;;20.94;50.20;152918.20;1687644;84;20198;-69
2022/09/05 03:08:05;;;;;;;;;;;;;;;20.91;50.43;152909.09;1692131;84;20218;-69
2022/09/05 03:10:59;;;;;;;;;;;;;;;20.97;50.33;152926.03;1646835;87;20219;-70
2022/09/05 03:13:57;;;;;;;;;;;;;;;21.04;50.19;152943.05;1646730;87;21160;-69
2022/09/05 03:16:47;;;;;;;;;;;;;;;21.07;50.24;152950.88;1708998;83;20129;-69
2022/09/05 03:19:55;;;;;;;;;;;;;;;20.87;50.08;152899.94;1709355;84;20201;-70
2022/09/05 03:22:55;;;;;;;;;;;;;;;20.73;50.55;152864.61;1709204;84;20189;-68
2022/09/05 03:25:41;;;;;;;;;;;;;;;20.69;50.50;152854.16;1709345;84;20206;-69
2022/09/05 03:28:39;;;;;;;;;;;;;;;20.82;50.59;152888.16;1705002;83;21266;-68
2022/09/05 03:31:29;;;;;;;;;;;;;;;20.85;50.17;152895.98;1701692;84;20211;-70
2022/09/05 03:34:08;;;;;;;;;;;;;;;20.83;50.23;152890.77;1704062;84;20222;-69
2022/09/05 03:36:51;;;;;;;;;;;;;;;20.86;50.50;152898.59;1704084;84;20197;-69
2022/09/05 03:39:47;;;;;;;;;;;;;;;20.92;50.38;152912.98;1704125;84;20185;-70
2022/09/05 03:42:21;;;;;;;;;;;;;;;20.94;50.29;152916.92;1702675;84;21154;-68
2022/09/05 03:45:03;;;;;;;;;;;;;;;20.99;49.96;152929.98;1704144;84;20180;-69
2022/09/05 03:47:49;;;;;;;;;;;;;;;21.02;49.36;152937.81;1704384;84;20841;-69
2022/09/05 03:50:29;;;;;;;;;;;;;;;21.07;49.07;152950.88;1704207;84;20179;-69
2022/09/05 03:53:28;;;;;;;;;;;;;;;21.10;48.58;152958.70;1703968;84;20211;-68
2022/09/05 03:56:05;;;;;;;;;;;;;;;21.10;48.87;152958.70;1703978;84;21272;-69
2022/09/05 03:58:41;;;;;;;;;;;;;;;21.23;48.73;152990.09;1688980;84;20206;-69
2022/09/05 04:01:26;;;;;;;;;;;;;;;21.40;48.54;153034.55;1704178;84;20191;-69
2022/09/05 04:04:05;;;;;;;;;;;;;;;21.47;48.44;153051.55;1704014;84;20193;-70
2022/09/05 04:06:35;;;;;;;;;;;;;;;21.54;48.19;153069.84;1682995;84;20185;-69
2022/09/05 04:09:17;;;;;;;;;;;;;;;21.50;48.19;153058.06;1675718;85;21138;-69
2022/09/05 04:11:54;;;;;;;;;;;;;;;21.44;47.81;153045.00;1675771;85;20455;-68
2022/09/05 04:14:33;;;;;;;;;;;;;;;21.33;47.66;153016.22;1646639;82;20190;-69
2022/09/05 04:17:20;;;;;;;;;;;;;;;21.18;47.98;152978.33;1643997;87;20207;-69
2022/09/05 04:19:51;;;;;;;;;;;;;;;21.10;49.00;152958.70;1645450;87;20136;-69
2022/09/05 04:22:47;;;;;;;;;;;;;;;21.21;48.36;152984.88;1645417;87;21428;-69
2022/09/05 04:25:45;;;;;;;;;;;;;;;21.27;48.32;153000.55;1645050;87;20186;-69
2022/09/05 04:28:21;;;;;;;;;;;;;;;21.32;47.79;153013.61;1638256;87;20180;-69
2022/09/05 04:31:00;;;;;;;;;;;;;;;21.33;47.57;153016.22;1630716;87;20187;-69
2022/09/05 04:33:33;;;;;;;;;;;;;;;21.42;47.16;153039.78;1602935;89;20464;-69
2022/09/05 04:36:18;;;;;;;;;;;;;;;21.41;47.36;153037.16;1630684;87;21157;-70
2022/09/05 04:38:45;;;;;;;;;;;;;;;21.37;47.52;153026.72;1631304;88;20152;-71
2022/09/05 04:41:17;;;;;;;;;;;;;;;21.27;47.41;153001.88;1630946;88;20207;-70
2022/09/05 04:43:56;;;;;;;;;;;;;;;21.20;47.40;152982.27;1630412;88;20200;-70
2022/09/05 04:46:42;;;;;;;;;;;;;;;21.15;47.70;152971.81;1630014;88;20485;-69
2022/09/05 04:49:13;;;;;;;;;;;;;;;21.24;47.53;152992.72;1630683;87;21145;-68
2022/09/05 04:52:02;;;;;;;;;;;;;;;21.31;48.09;153011.00;1602647;89;20197;-69
2022/09/05 04:54:41;;;;;;;;;;;;;;;21.60;47.99;153084.23;1630263;87;20216;-69
2022/09/05 04:57:14;;;;;;;;;;;;;;;21.86;47.42;153149.66;1633871;87;20215;-69
2022/09/05 05:00:03;;;;;;;;;;;;;;;22.07;46.52;153203.23;1665458;86;20202;-68
2022/09/05 05:02:46;;;;;;;;;;;;;;;22.20;46.20;153235.92;1665375;85;21127;-69
2022/09/05 05:05:21;;;;;;;;;;;;;;;22.41;45.46;153288.25;1672127;84;20538;-69
2022/09/05 05:08:07;;;;;;;;;;;;;;;22.46;43.91;153302.69;1699678;84;20471;-68
2022/09/05 05:10:41;;;;;;;;;;;;;;;22.38;42.99;153281.73;1641469;87;20664;-70
2022/09/05 05:13:30;;;;;;;;;;;;;;;22.24;42.39;153246.44;1696959;84;20254;-70
2022/09/05 05:16:05;;;;;;;;;;;;;;;22.21;42.47;153237.25;1694234;84;21260;-70
2022/09/05 05:18:37;;;;;;;;;;;;;;;22.19;42.54;153233.31;1683069;84;20138;-71
2022/09/05 05:21:11;;;;;;;;;;;;;;;22.30;42.17;153262.11;1694237;84;20183;-71
2022/09/05 05:23:40;;;;;;;;;;;;;;;22.26;41.57;153250.33;1693980;83;20151;-70
2022/09/05 05:26:10;;;;;;;;;;;;;;;22.17;41.93;153228.09;1694156;84;20183;-69
2022/09/05 05:28:50;;;;;;;;;;;;;;;22.03;41.69;153192.78;1703343;83;21275;-69
2022/09/05 05:31:20;;;;;;;;;;;;;;;21.95;42.09;153173.16;1712321;83;21148;-70
2022/09/05 05:33:49;;;;;;;;;;;;;;;21.91;41.77;153161.44;1712547;83;20435;-70
2022/09/05 05:36:27;;;;;;;;;;;;;;;21.83;41.55;153143.09;1712335;83;20185;-69
2022/09/05 05:39:06;;;;;;;;;;;;;;;21.78;42.13;153128.75;1712334;83;20688;-70
2022/09/05 05:41:44;;;;;;;;;;;;;;;21.99;41.64;153182.33;1712064;83;21230;-70
2022/09/05 05:44:16;;;;;;;;;;;;;;;22.20;41.17;153235.92;1712225;83;20617;-70
2022/09/05 05:47:00;;;;;;;;;;;;;;;22.27;40.57;153254.27;1712184;83;20906;-70
2022/09/05 05:49:33;;;;;;;;;;;;;;;22.24;40.18;153245.09;1712435;83;20190;-67
2022/09/05 05:52:06;;;;;;;;;;;;;;;22.49;40.65;153309.25;1712643;83;20201;-66
2022/09/05 05:54:48;;;;;;;;;;;;;;;22.64;40.69;153345.84;1711831;83;21821;-66
2022/09/05 05:57:34;;;;;;;;;;;;;;;22.83;39.68;153395.56;1712294;83;20466;-69
2022/09/05 06:00:07;;;;;;;;;;;;;;;22.90;39.83;153412.59;1712383;83;20174;-67
2022/09/05 06:02:53;;;;;;;;;;;;;;;22.81;40.48;153389.06;1704859;83;20182;-66
2022/09/05 06:05:46;;;;;;;;;;;;;;;22.77;40.55;153379.88;1700798;83;20228;-64
2022/09/05 06:08:34;;;;;;;;;;;;;;;22.80;39.98;153387.72;1681119;83;21279;-66
2022/09/05 06:11:13;;;;;;;;;;;;;;;22.92;39.75;153416.53;1640022;87;20573;-66
2022/09/05 06:13:57;;;;;;;;;;;;;;;23.12;39.41;153468.88;1639180;87;20207;-65
2022/09/05 06:16:44;;;;;;;;;;;;;;;23.44;38.76;153550.03;1631979;86;20203;-66
2022/09/05 06:19:29;;;;;;;;;;;;;;;23.77;37.96;153631.22;1702375;83;20223;-66
2022/09/05 06:22:09;;;;;;;;;;;;;;;23.96;36.57;153680.92;1699930;83;21238;-66
2022/09/05 06:25:01;;;;;;;;;;;;;;;24.03;36.29;153699.33;1703539;82;20290;-66
2022/09/05 06:27:37;;;;;;;;;;;;;;;24.00;36.78;153691.44;1701826;83;20627;-66
2022/09/05 06:30:13;;;;;;;;;;;;;;;23.99;36.19;153688.81;1703508;82;20227;-67
2022/09/05 06:33:08;;;;;;;;;;;;;;;23.98;35.90;153686.16;1715212;82;20568;-66
2022/09/05 06:35:59;;;;;;;;;;;;;;;23.91;35.69;153667.84;1679084;83;21134;-67
2022/09/05 06:38:44;;;;;;;;;;;;;;;23.66;36.34;153605.02;1703569;82;20186;-66
2022/09/05 06:41:42;;;;;;;;;;;;;;;23.63;36.76;153595.83;1701214;83;20209;-66
2022/09/05 06:44:30;;;;;;;;;;;;;;;23.73;36.39;153623.31;1646002;86;20662;-67
2022/09/05 06:46:57;;;;;;;;;;;;;;;23.62;36.38;153594.55;1685119;84;20352;-69
2022/09/05 06:49:28;;;;;;;;;;;;;;;23.51;36.13;153565.72;1701256;82;21866;-69
2022/09/05 06:52:33;;;;;;;;;;;;;;;23.38;36.22;153534.34;1700383;82;20200;-69
2022/09/05 06:55:18;;;;;;;;;;;;;;;23.28;36.22;153509.48;1688140;84;20210;-69
2022/09/05 06:57:55;;;;;;;;;;;;;;;23.28;36.31;153509.48;1681956;84;20439;-66
2022/09/05 07:00:25;;;;;;;;;;;;;;;23.46;36.22;153553.98;1698344;83;20213;-66
2022/09/05 07:03:19;;;;;;;;;;;;;;;23.64;35.97;153599.78;1714047;82;21789;-69
2022/09/05 07:06:14;;;;;;;;;;;;;;;23.75;35.29;153628.55;1670004;84;20219;-69
2022/09/05 07:08:57;;;;;;;;;;;;;;;23.68;35.53;153608.97;1653827;85;20487;-69
2022/09/05 07:11:43;;;;;;;;;;;;;;;23.50;35.63;153564.44;1679058;84;20643;-70
2022/09/05 07:14:14;;;;;;;;;;;;;;;23.39;35.73;153535.63;1650087;85;20661;-68
2022/09/05 07:16:57;;;;;;;;;;;;;;;23.22;35.78;153493.73;1668810;84;22380;-69
2022/09/05 07:19:32;;;;;;;;;;;;;;;23.17;36.22;153480.63;1675532;84;20522;-68
2022/09/05 07:22:27;;;;;;;;;;;;;;;23.11;36.36;153466.25;1679326;84;20180;-69
2022/09/05 07:24:53;;;;;;;;;;;;;;;23.10;36.97;153463.64;1674921;84;20193;-68
2022/09/05 07:27:53;;;;;;;;;;;;;;;23.03;37.44;153445.28;1650793;84;20222;-68
2022/09/05 07:30:19;;;;;;;;;;;;;;;23.15;37.31;153476.72;1675825;84;21266;-68
2022/09/05 07:32:52;;;;;;;;;;;;;;;23.39;36.93;153536.97;1684196;84;20190;-69
2022/09/05 07:35:31;;;;;;;;;;;;;;;23.48;36.88;153559.22;1688346;84;20173;-68
2022/09/05 07:38:12;;;;;;;;;;;;;;;23.60;36.49;153590.59;1677789;84;20184;-68
2022/09/05 07:40:38;;;;;;;;;;;;;;;23.59;36.42;153586.70;1674491;84;20213;-68
2022/09/05 07:43:09;;;;;;;;;;;;;;;23.54;36.72;153573.56;1674512;84;20140;-68
2022/09/05 07:45:37;;;;;;;;;;;;;;;23.61;36.50;153591.94;1655786;85;20454;-68
2022/09/05 07:48:07;;;;;;;;;;;;;;;23.53;36.56;153570.95;1657058;85;20190;-69
2022/09/05 07:50:38;;;;;;;;;;;;;;;23.46;36.83;153553.98;1650694;85;20129;-68
2022/09/05 07:53:05;;;;;;;;;;;;;;;23.49;36.76;153560.50;1648554;85;20172;-68
2022/09/05 07:55:40;;;;;;;;;;;;;;;23.35;36.83;153526.50;1648118;86;21151;-69
2022/09/05 07:58:02;;;;;;;;;;;;;;;23.31;37.31;153516.00;1647357;86;20229;-68
2022/09/05 08:00:29;;;;;;;;;;;;;;;23.46;37.16;153555.27;1646143;85;20264;-69
2022/09/05 08:03:01;;;;;;;;;;;;;;;23.46;36.49;153555.27;1652500;86;20181;-68
2022/09/05 08:05:30;;;;;;;;;;;;;;;23.51;36.78;153565.72;1647461;86;20185;-69
2022/09/05 08:07:58;;;;;;;;;;;;;;;23.51;36.58;153567.06;1645710;86;20689;-68
2022/09/05 08:10:34;;;;;;;;;;;;;;;23.40;36.56;153538.25;1650155;86;20360;-69
2022/09/05 08:13:07;;;;;;;;;;;;;;;23.34;37.52;153523.88;1653772;85;20197;-68
2022/09/05 08:15:34;;;;;;;;;;;;;;;23.33;37.29;153521.27;1645834;86;20513;-68
2022/09/05 08:18:16;;;;;;;;;;;;;;;23.30;37.15;153513.38;1653145;86;20208;-69
2022/09/05 08:20:54;;;;;;;;;;;;;;;23.21;37.16;153489.78;1648714;86;22692;-68
2022/09/05 08:23:58;;;;;;;;;;;;;;;23.11;37.53;153464.92;1651283;85;20465;-68
2022/09/05 08:26:41;;;;;;;;;;;;;;;23.31;37.36;153516.00;1653185;85;20507;-68
2022/09/05 08:29:24;;;;;;;;;;;;;;;23.40;37.17;153538.25;1667260;84;20688;-68
2022/09/05 08:32:08;;;;;;;;;;;;;;;23.41;36.99;153542.19;1699380;84;20222;-68
2022/09/05 08:35:05;;;;;;;;;;;;;;;23.48;36.96;153559.22;1693961;83;21216;-68
2022/09/05 08:37:31;;;;;;;;;;;;;;;23.58;36.74;153584.09;1698609;84;20460;-69
2022/09/05 08:40:01;;;;;;;;;;;;;;;23.50;37.03;153563.11;1692727;83;20208;-69
2022/09/05 08:43:07;;;;;;;;;;;;;;;23.61;36.87;153591.94;1684102;83;20476;-67
2022/09/05 08:45:42;;;;;;;;;;;;;;;23.69;36.76;153612.86;1688891;83;20561;-68
2022/09/05 08:48:42;;;;;;;;;;;;;;;23.71;36.50;153618.09;1698297;83;21137;-68
2022/09/05 08:51:12;;;;;;;;;;;;;;;23.65;36.39;153602.39;1697849;83;20512;-68
2022/09/05 08:53:49;;;;;;;;;;;;;;;23.44;36.72;153550.03;1695354;83;20258;-68
2022/09/05 08:56:24;;;;;;;;;;;;;;;23.42;36.90;153544.81;1696189;84;20210;-68
2022/09/05 08:59:11;;;;;;;;;;;;;;;23.39;37.06;153536.97;1694223;84;20260;-68
2022/09/05 09:01:58;;;;;;;;;;;;;;;23.43;37.26;153547.42;1695220;82;21142;-68
2022/09/05 09:04:40;;;;;;;;;;;;;;;23.58;36.88;153584.09;1693852;83;20187;-68
2022/09/05 09:07:20;;;;;;;;;;;;;;;23.63;36.46;153595.83;1696930;84;20237;-68
2022/09/05 09:10:03;;;;;;;;;;;;;;;23.59;36.60;153586.70;1697340;83;20150;-70
2022/09/05 09:12:48;;;;;;;;;;;;;;;23.50;36.65;153563.11;1687918;83;20337;-69
2022/09/05 09:15:23;;;;;;;;;;;;;;;23.43;37.11;153547.42;1692268;83;21215;-68
2022/09/05 09:18:18;;;;;;;;;;;;;;;23.57;37.07;153581.47;1699154;83;20189;-67
2022/09/05 09:20:51;;;;;;;;;;;;;;;23.71;36.30;153616.81;1698652;83;20188;-68
2022/09/05 09:23:28;;;;;;;;;;;;;;;23.74;36.34;153624.66;1683180;83;20181;-69
2022/09/05 09:26:14;;;;;;;;;;;;;;;23.60;36.30;153589.31;1697804;83;20178;-66
2022/09/05 09:29:05;;;;;;;;;;;;;;;23.50;36.28;153563.11;1675822;84;21130;-66
2022/09/05 09:31:54;;;;;;;;;;;;;;;23.53;35.97;153570.95;1700828;83;20264;-66
2022/09/05 09:34:31;;;;;;;;;;;;;;;23.53;36.42;153570.95;1700692;84;20122;-66
2022/09/05 09:37:07;;;;;;;;;;;;;;;23.56;36.35;153578.86;1697671;84;20130;-65
2022/09/05 09:39:52;;;;;;;;;;;;;;;23.64;36.17;153598.44;1697627;84;20214;-67
2022/09/05 09:42:52;;;;;;;;;;;;;;;23.74;36.35;153625.94;1690428;84;20158;-69
2022/09/05 09:45:49;;;;;;;;;;;;;;;24.03;36.37;153699.33;1698410;84;20233;-69
2022/09/05 09:48:36;;;;;;;;;;;;;;;24.24;35.71;153750.38;1690482;84;20174;-69
2022/09/05 09:51:25;;;;;;;;;;;;;;;24.39;35.62;153788.34;1699993;84;20304;-68
2022/09/05 09:54:15;;;;;;;;;;;;;;;24.49;35.18;153813.22;1698806;84;20198;-69
2022/09/05 09:57:01;;;;;;;;;;;;;;;24.55;34.28;153830.25;1676531;84;21863;-68
2022/09/05 09:59:35;;;;;;;;;;;;;;;24.67;34.59;153859.09;1679178;84;20224;-68
2022/09/05 10:02:35;;;;;;;;;;;;;;;24.84;34.59;153903.64;1697202;84;20489;-69
2022/09/05 10:05:39;;;;;;;;;;;;;;;24.92;34.56;153922.02;1692897;84;20193;-69
2022/09/05 10:08:16;;;;;;;;;;;;;;;24.85;33.84;153906.25;1701693;84;20496;-67
2022/09/05 10:11:10;;;;;;;;;;;;;;;24.78;33.66;153886.66;1701579;83;21153;-66
2022/09/05 10:14:14;;;;;;;;;;;;;;;24.55;34.05;153830.25;1701113;84;20588;-65
2022/09/05 10:17:02;;;;;;;;;;;;;;;24.22;34.60;153745.14;1700888;84;20186;-65
2022/09/05 10:19:48;;;;;;;;;;;;;;;24.10;34.87;153715.03;1700897;84;20217;-65
2022/09/05 10:22:30;;;;;;;;;;;;;;;24.09;35.00;153712.41;1701166;84;20178;-66
2022/09/05 10:25:23;;;;;;;;;;;;;;;24.13;35.43;153722.88;1701825;84;21256;-65
2022/09/05 10:28:05;;;;;;;;;;;;;;;24.42;35.23;153796.19;1701295;84;20392;-66
2022/09/05 10:30:47;;;;;;;;;;;;;;;24.73;34.36;153874.80;1699113;83;20199;-66
2022/09/05 10:33:30;;;;;;;;;;;;;;;24.88;33.91;153914.16;1698140;84;20182;-66
2022/09/05 10:36:17;;;;;;;;;;;;;;;24.89;34.28;153916.78;1698900;84;20140;-66
2022/09/05 10:38:45;;;;;;;;;;;;;;;24.93;34.48;153924.63;1698734;84;21248;-66
2022/09/05 10:41:14;;;;;;;;;;;;;;;25.06;33.75;153958.66;1698771;84;21069;-66
2022/09/05 10:43:48;;;;;;;;;;;;;;;25.12;33.87;153973.08;1698253;84;20206;-66
2022/09/05 10:46:35;;;;;;;;;;;;;;;25.20;33.84;153992.75;1698992;84;20162;-66
2022/09/05 10:49:06;;;;;;;;;;;;;;;25.10;33.28;153969.17;1699086;84;20139;-67
2022/09/05 10:51:48;;;;;;;;;;;;;;;24.77;33.75;153885.31;1698417;84;21845;-65
2022/09/05 10:54:30;;;;;;;;;;;;;;;24.50;34.21;153817.17;1691952;84;20118;-66
2022/09/05 10:57:10;;;;;;;;;;;;;;;24.29;34.74;153764.78;1697745;84;20186;-66
2022/09/05 10:59:42;;;;;;;;;;;;;;;24.22;34.44;153746.47;1695584;84;20187;-66
2022/09/05 11:02:16;;;;;;;;;;;;;;;24.17;34.67;153733.34;1684957;84;20208;-66
2022/09/05 11:04:46;;;;;;;;;;;;;;;24.21;34.87;153743.86;1688372;84;21116;-65
2022/09/05 11:07:21;;;;;;;;;;;;;;;24.27;35.41;153759.56;1695389;84;20186;-65
2022/09/05 11:10:02;;;;;;;;;;;;;;;24.32;34.89;153772.64;1695724;84;20211;-66
2022/09/05 11:12:49;;;;;;;;;;;;;;;24.32;34.59;153772.64;1611015;87;20195;-67
2022/09/05 11:15:20;;;;;;;;;;;;;;;24.36;34.13;153781.81;1630577;87;20201;-66
2022/09/05 11:17:53;;;;;;;;;;;;;;;24.42;34.23;153796.19;1648050;85;21248;-66
2022/09/05 11:20:33;;;;;;;;;;;;;;;24.51;34.15;153819.78;1643878;86;20179;-66
2022/09/05 11:23:06;;;;;;;;;;;;;;;24.66;34.30;153856.48;1695752;83;20178;-66
2022/09/05 11:25:33;;;;;;;;;;;;;;;24.58;33.96;153838.11;1680370;83;20677;-66
2022/09/05 11:28:07;;;;;;;;;;;;;;;24.40;34.46;153790.95;1694575;83;20197;-66
2022/09/05 11:30:38;;;;;;;;;;;;;;;24.37;35.10;153784.44;1704525;82;21840;-66
2022/09/05 11:33:32;;;;;;;;;;;;;;;24.41;35.30;153794.91;1714691;82;20210;-66
2022/09/05 11:36:02;;;;;;;;;;;;;;;24.56;34.99;153832.87;1705272;82;20194;-66
2022/09/05 11:39:07;;;;;;;;;;;;;;;24.43;35.18;153800.14;1704286;82;20236;-66
2022/09/05 11:41:41;;;;;;;;;;;;;;;24.20;35.73;153739.91;1709984;82;20300;-66
2022/09/05 11:44:21;;;;;;;;;;;;;;;24.01;36.22;153692.72;1690750;83;21229;-65
2022/09/05 11:47:13;;;;;;;;;;;;;;;23.96;36.56;153680.92;1628008;86;20405;-66
2022/09/05 11:50:02;;;;;;;;;;;;;;;23.85;36.51;153653.42;1679769;84;20180;-66
2022/09/05 11:53:02;;;;;;;;;;;;;;;23.62;36.94;153594.55;1676653;83;20182;-66
2022/09/05 11:55:49;;;;;;;;;;;;;;;23.58;36.92;153584.09;1682356;83;20159;-66
2022/09/05 11:58:22;;;;;;;;;;;;;;;23.53;37.20;153572.28;1676998;84;22127;-66
2022/09/05 12:01:11;;;;;;;;;;;;;;;23.61;37.22;153591.94;1683731;83;20246;-66
2022/09/05 12:04:34;;;;;;;;;;;;;;;23.80;36.95;153639.06;1681944;84;20159;-66
2022/09/05 12:07:41;;;;;;;;;;;;;;;23.97;36.52;153683.53;1684564;84;20178;-66
2022/09/05 12:10:36;;;;;;;;;;;;;;;24.09;36.38;153712.41;1684007;83;20442;-70
2022/09/05 12:13:53;;;;;;;;;;;;;;;24.30;35.41;153767.41;1681091;84;20179;-70
2022/09/05 12:17:03;;;;;;;;;;;;;;;24.41;34.70;153793.56;1675705;84;20575;-69
2022/09/05 12:20:06;;;;;;;;;;;;;;;24.37;34.84;153784.44;1677522;84;20447;-69
2022/09/05 12:22:33;;;;;;;;;;;;;;;24.42;34.44;153796.19;1672080;84;20210;-69
2022/09/05 12:25:29;;;;;;;;;;;;;;;24.53;34.43;153823.69;1676874;84;20461;-69
2022/09/05 12:27:58;;;;;;;;;;;;;;;24.67;35.28;153859.09;1688368;84;21231;-70
2022/09/05 12:30:29;;;;;;;;;;;;;;;24.74;35.98;153877.42;1686074;84;20935;-69
2022/09/05 12:33:14;;;;;;;;;;;;;;;24.84;36.23;153903.64;1684488;83;20159;-69
2022/09/05 12:35:43;;;;;;;;;;;;;;;24.94;36.05;153927.25;1686845;83;20183;-69
2022/09/05 12:38:35;;;;;;;;;;;;;;;25.07;36.01;153961.28;1694566;83;20191;-69
2022/09/05 12:41:13;;;;;;;;;;;;;;;25.20;35.90;153992.75;1689772;83;21178;-69
2022/09/05 12:43:46;;;;;;;;;;;;;;;25.29;35.56;154017.64;1687963;83;20180;-70
2022/09/05 12:46:23;;;;;;;;;;;;;;;25.28;35.36;154015.02;1686953;83;20176;-69
2022/09/05 12:49:06;;;;;;;;;;;;;;;24.95;35.56;153929.86;1689280;84;20157;-69
2022/09/05 12:51:38;;;;;;;;;;;;;;;24.51;36.17;153818.45;1677879;84;20623;-70
2022/09/05 12:54:16;;;;;;;;;;;;;;;24.34;36.58;153776.59;1682988;84;21236;-69
2022/09/05 12:57:01;;;;;;;;;;;;;;;24.22;36.92;153746.47;1677638;82;20208;-69
2022/09/05 12:59:29;;;;;;;;;;;;;;;24.19;37.53;153738.58;1677957;83;20630;-70
2022/09/05 13:02:05;;;;;;;;;;;;;;;24.15;37.34;153728.11;1686862;83;20759;-70
2022/09/05 13:04:40;;;;;;;;;;;;;;;24.19;37.58;153738.58;1686815;83;20196;-70
2022/09/05 13:07:19;;;;;;;;;;;;;;;24.27;37.92;153758.22;1715903;82;21225;-70
2022/09/05 13:09:55;;;;;;;;;;;;;;;24.34;37.91;153775.25;1715813;82;20194;-69
2022/09/05 13:12:28;;;;;;;;;;;;;;;24.42;37.49;153796.19;1684915;83;20196;-70
2022/09/05 13:15:04;;;;;;;;;;;;;;;24.41;37.37;153793.56;1691403;83;20459;-70
2022/09/05 13:17:37;;;;;;;;;;;;;;;24.31;37.54;153768.69;1692718;83;20123;-70
2022/09/05 13:20:07;;;;;;;;;;;;;;;24.12;37.92;153721.59;1686687;83;21167;-71
2022/09/05 13:22:37;;;;;;;;;;;;;;;23.93;38.24;153673.08;1690586;83;20193;-70
2022/09/05 13:25:10;;;;;;;;;;;;;;;23.78;38.67;153633.83;1696094;83;20207;-70
2022/09/05 13:27:43;;;;;;;;;;;;;;;23.81;39.07;153642.97;1690790;83;20205;-70
2022/09/05 13:30:10;;;;;;;;;;;;;;;23.91;38.84;153667.84;1686642;82;20182;-70
2022/09/05 13:32:44;;;;;;;;;;;;;;;24.07;38.66;153708.47;1697916;83;21241;-69
2022/09/05 13:35:16;;;;;;;;;;;;;;;24.16;38.24;153732.06;1692754;84;20432;-69
2022/09/05 13:37:46;;;;;;;;;;;;;;;24.15;38.16;153729.44;1686158;83;20228;-69
2022/09/05 13:40:18;;;;;;;;;;;;;;;24.15;38.15;153728.11;1697474;83;20231;-70
2022/09/05 13:42:57;;;;;;;;;;;;;;;24.22;38.00;153745.14;1695901;84;20184;-72
2022/09/05 13:45:25;;;;;;;;;;;;;;;24.31;38.03;153770.03;1700357;82;21248;-71
2022/09/05 13:48:11;;;;;;;;;;;;;;;24.48;37.91;153811.94;1694008;83;20222;-72